createdAt,value
2018-03-27T00:00:45.895Z,94.50
2018-03-27T00:02:49.254Z,94.80
2018-03-27T00:04:52.602Z,94.90
2018-03-27T00:06:56.714Z,95.20
2018-03-27T00:09:00.050Z,94.90
2018-03-27T00:11:03.392Z,95.10
2018-03-27T00:13:07.488Z,95.10
2018-03-27T00:15:10.839Z,95.10
2018-03-27T00:17:14.170Z,95.00
2018-03-27T00:19:17.508Z,94.80
2018-03-27T00:21:21.595Z,94.80
2018-03-27T00:23:24.936Z,94.80
2018-03-27T00:25:28.285Z,94.80
2018-03-27T00:27:44.194Z,94.50
2018-03-27T00:30:05.489Z,94.50
2018-03-27T00:32:26.869Z,94.20
2018-03-27T00:34:48.025Z,94.50
2018-03-27T00:37:09.155Z,94.70
2018-03-27T00:39:30.396Z,95.00
2018-03-27T00:44:24.703Z,95.50
2018-03-27T00:46:27.781Z,95.50
2018-03-27T00:48:30.877Z,95.60
2018-03-27T00:50:33.957Z,95.50
2018-03-27T00:52:38.066Z,95.70
2018-03-27T00:54:42.188Z,95.70
2018-03-27T00:56:45.542Z,95.70
2018-03-27T00:58:48.862Z,95.90
2018-03-27T01:00:52.193Z,95.60
2018-03-27T01:02:55.543Z,95.80
2018-03-27T01:05:04.589Z,96.00
2018-03-27T01:07:08.681Z,96.10
2018-03-27T01:09:11.993Z,96.10
2018-03-27T01:11:16.107Z,96.30
2018-03-27T01:13:19.460Z,96.20
2018-03-27T01:15:22.788Z,96.10
2018-03-27T01:17:26.163Z,96.20
2018-03-27T01:19:30.268Z,96.10
2018-03-27T01:21:34.445Z,96.20
2018-03-27T01:23:37.790Z,96.10
2018-03-27T01:25:41.904Z,96.10
2018-03-27T01:27:45.992Z,96.10
2018-03-27T01:29:50.111Z,96.00
2018-03-27T01:31:53.524Z,96.10
2018-03-27T01:33:56.859Z,96.10
2018-03-27T01:36:00.182Z,96.10
2018-03-27T01:38:03.530Z,96.20
2018-03-27T01:40:06.889Z,96.30
2018-03-27T01:42:10.245Z,96.50
2018-03-27T01:44:13.575Z,96.40
2018-03-27T01:46:16.911Z,97.00
2018-03-27T01:48:20.241Z,98.00
2018-03-27T01:50:24.355Z,98.70
2018-03-27T01:52:27.685Z,98.70
2018-03-27T01:54:31.029Z,98.80
2018-03-27T01:56:34.352Z,98.80
2018-03-27T01:58:37.696Z,98.70
2018-03-27T02:00:41.792Z,98.30
2018-03-27T02:02:45.119Z,98.20
2018-03-27T02:04:48.441Z,98.70
2018-03-27T02:06:51.782Z,98.70
2018-03-27T02:08:55.878Z,98.20
2018-03-27T02:11:05.553Z,98.40
2018-03-27T02:13:14.495Z,98.40
2018-03-27T02:15:24.288Z,98.40
2018-03-27T02:17:33.160Z,98.50
2018-03-27T02:19:42.060Z,98.60
2018-03-27T02:21:44.919Z,98.80
2018-03-27T02:23:49.021Z,98.50
2018-03-27T02:25:53.118Z,98.50
2018-03-27T02:27:56.445Z,98.60
2018-03-27T02:29:59.777Z,98.20
2018-03-27T02:32:03.117Z,98.40
2018-03-27T02:34:07.218Z,98.20
2018-03-27T02:36:11.322Z,98.20
2018-03-27T02:38:14.655Z,98.30
2018-03-27T02:40:17.977Z,97.90
2018-03-27T02:42:21.303Z,98.00
2018-03-27T02:44:25.422Z,97.80
2018-03-27T02:46:29.515Z,97.70
2018-03-27T02:48:32.860Z,97.60
2018-03-27T02:50:36.206Z,97.30
2018-03-27T02:52:39.539Z,97.40
2018-03-27T02:54:43.637Z,97.40
2018-03-27T02:56:46.967Z,97.30
2018-03-27T02:58:50.379Z,97.20
2018-03-27T03:00:54.489Z,97.60
2018-03-27T03:02:58.604Z,97.60
2018-03-27T03:05:02.707Z,97.30
2018-03-27T03:07:06.815Z,97.50
2018-03-27T03:09:10.142Z,97.50
2018-03-27T03:11:13.477Z,97.40
2018-03-27T03:13:16.810Z,97.50
2018-03-27T03:15:20.247Z,97.20
2018-03-27T03:17:23.570Z,97.20
2018-03-27T03:19:27.809Z,97.20
2018-03-27T03:21:31.190Z,97.10
2018-03-27T03:23:35.323Z,97.20
2018-03-27T03:25:38.676Z,97.20
2018-03-27T03:27:42.084Z,97.00
2018-03-27T03:29:46.168Z,97.20
2018-03-27T03:31:49.502Z,97.20
2018-03-27T03:33:52.830Z,97.10
2018-03-27T03:35:56.201Z,97.20
2018-03-27T03:37:59.514Z,96.90
2018-03-27T03:40:02.845Z,96.80
2018-03-27T03:42:06.942Z,97.90
2018-03-27T03:44:11.039Z,98.60
2018-03-27T03:46:14.398Z,98.50
2018-03-27T03:48:17.723Z,98.80
2018-03-27T03:50:21.081Z,98.40
2018-03-27T03:52:24.406Z,98.60
2018-03-27T03:54:27.884Z,98.30
2018-03-27T03:56:31.246Z,98.30
2018-03-27T03:58:34.569Z,98.30
2018-03-27T04:00:37.932Z,98.00
2018-03-27T04:02:42.050Z,97.90
2018-03-27T04:04:45.382Z,97.90
2018-03-27T04:06:48.735Z,97.80
2018-03-27T04:08:52.055Z,97.50
2018-03-27T04:10:55.384Z,97.50
2018-03-27T04:12:58.729Z,97.60
2018-03-27T04:15:02.075Z,97.40
2018-03-27T04:17:05.415Z,97.30
2018-03-27T04:19:09.547Z,97.40
2018-03-27T04:21:12.890Z,97.40
2018-03-27T04:23:16.212Z,97.60
2018-03-27T04:25:20.322Z,97.80
2018-03-27T04:27:23.657Z,97.70
2018-03-27T04:29:27.009Z,97.90
2018-03-27T04:31:30.336Z,97.80
2018-03-27T04:33:33.673Z,97.80
2018-03-27T04:35:37.006Z,97.80
2018-03-27T04:37:40.343Z,97.70
2018-03-27T04:39:43.692Z,97.60
2018-03-27T04:41:47.026Z,97.60
2018-03-27T04:43:51.116Z,97.60
2018-03-27T04:45:54.445Z,97.60
2018-03-27T04:47:57.782Z,97.70
2018-03-27T04:50:01.161Z,97.60
2018-03-27T04:52:04.562Z,97.60
2018-03-27T04:54:07.875Z,97.60
2018-03-27T04:56:11.205Z,97.60
2018-03-27T04:58:14.541Z,97.60
2018-03-27T05:00:17.927Z,97.60
2018-03-27T05:02:21.300Z,97.40
2018-03-27T05:04:24.599Z,97.70
2018-03-27T05:06:27.929Z,97.60
2018-03-27T05:08:31.279Z,97.60
2018-03-27T05:10:35.389Z,97.60
2018-03-27T05:12:39.484Z,97.60
2018-03-27T05:14:42.861Z,97.60
2018-03-27T05:16:46.205Z,97.70
2018-03-27T05:18:49.553Z,97.70
2018-03-27T05:20:52.869Z,97.70
2018-03-27T05:22:56.980Z,97.50
2018-03-27T05:25:00.302Z,97.70
2018-03-27T05:27:03.616Z,98.30
2018-03-27T05:29:07.742Z,98.20
2018-03-27T05:31:11.061Z,98.30
2018-03-27T05:33:14.417Z,98.10
2018-03-27T05:35:17.756Z,98.20
2018-03-27T05:37:21.870Z,98.20
2018-03-27T05:39:25.203Z,98.20
2018-03-27T05:41:28.567Z,98.20
2018-03-27T05:43:31.897Z,98.30
2018-03-27T05:45:35.219Z,98.20
2018-03-27T05:47:38.542Z,98.20
2018-03-27T05:49:41.875Z,98.50
2018-03-27T05:51:45.263Z,98.10
2018-03-27T05:53:48.588Z,98.00
2018-03-27T05:55:51.969Z,98.00
2018-03-27T05:57:56.244Z,97.90
2018-03-27T05:59:59.649Z,97.70
2018-03-27T06:02:02.982Z,97.80
2018-03-27T06:04:06.327Z,97.80
2018-03-27T06:06:09.644Z,97.90
2018-03-27T06:08:13.784Z,98.30
2018-03-27T06:10:17.754Z,97.70
2018-03-27T06:12:21.844Z,98.00
2018-03-27T06:14:25.185Z,98.10
2018-03-27T06:16:28.499Z,97.70
2018-03-27T06:18:31.821Z,97.80
2018-03-27T06:20:35.900Z,97.80
2018-03-27T06:22:39.249Z,97.70
2018-03-27T06:24:42.588Z,97.80
2018-03-27T06:26:46.833Z,98.10
2018-03-27T06:28:50.171Z,98.20
2018-03-27T06:30:53.513Z,99.00
2018-03-27T06:32:56.935Z,99.00
2018-03-27T06:35:01.101Z,98.80
2018-03-27T06:37:04.443Z,98.90
2018-03-27T06:39:07.777Z,98.70
2018-03-27T06:41:11.120Z,98.20
2018-03-27T06:43:14.438Z,97.80
2018-03-27T06:45:17.768Z,98.10
2018-03-27T06:47:21.864Z,98.80
2018-03-27T06:49:25.218Z,98.80
2018-03-27T06:51:28.553Z,98.90
2018-03-27T06:53:31.884Z,99.00
2018-03-27T06:55:35.214Z,99.10
2018-03-27T06:57:38.551Z,98.50
2018-03-27T06:59:42.639Z,98.40
2018-03-27T07:01:45.965Z,98.20
2018-03-27T07:03:49.590Z,98.50
2018-03-27T07:05:53.477Z,98.40
2018-03-27T07:07:56.877Z,98.60
2018-03-27T07:10:00.261Z,98.60
2018-03-27T07:12:03.641Z,98.60
2018-03-27T07:14:07.000Z,98.10
2018-03-27T07:16:10.347Z,98.40
2018-03-27T07:18:13.743Z,98.40
2018-03-27T07:20:17.054Z,98.20
2018-03-27T07:22:20.393Z,98.50
2018-03-27T07:24:23.723Z,98.30
2018-03-27T07:26:27.274Z,97.70
2018-03-27T07:28:30.648Z,97.60
2018-03-27T07:30:33.970Z,97.70
2018-03-27T07:32:37.358Z,97.60
2018-03-27T07:34:40.776Z,97.00
2018-03-27T07:36:44.123Z,96.90
2018-03-27T07:38:47.436Z,97.20
2018-03-27T07:40:50.768Z,97.00
2018-03-27T07:42:54.104Z,96.80
2018-03-27T07:44:57.440Z,96.80
2018-03-27T07:47:00.760Z,96.60
2018-03-27T07:49:04.108Z,96.00
2018-03-27T07:51:07.544Z,96.00
2018-03-27T07:53:10.885Z,95.20
2018-03-27T07:55:14.232Z,95.70
2018-03-27T07:57:18.333Z,95.60
2018-03-27T07:59:21.793Z,95.40
2018-03-27T08:01:25.152Z,95.70
2018-03-27T08:03:29.258Z,95.80
2018-03-27T08:05:33.366Z,95.90
2018-03-27T08:07:37.455Z,96.10
2018-03-27T08:09:41.570Z,96.40
2018-03-27T08:11:44.926Z,96.30
2018-03-27T08:13:48.270Z,96.10
2018-03-27T08:15:52.384Z,96.40
2018-03-27T08:17:57.683Z,96.80
2018-03-27T08:20:01.024Z,96.60
2018-03-27T08:22:04.371Z,96.90
2018-03-27T08:24:07.803Z,97.00
2018-03-27T08:26:11.067Z,96.90
2018-03-27T08:28:15.166Z,97.30
2018-03-27T08:30:18.506Z,97.30
2018-03-27T08:32:21.857Z,97.20
2018-03-27T08:34:25.972Z,97.10
2018-03-27T08:36:30.071Z,97.10
2018-03-27T08:38:33.393Z,97.10
2018-03-27T08:40:36.714Z,97.10
2018-03-27T08:42:40.800Z,97.20
2018-03-27T08:44:44.122Z,97.20
2018-03-27T08:46:47.461Z,97.60
2018-03-27T08:48:50.837Z,97.00
2018-03-27T08:50:54.172Z,96.90
2018-03-27T08:52:57.508Z,97.30
2018-03-27T08:55:00.888Z,97.60
2018-03-27T08:57:04.782Z,97.60
2018-03-27T08:59:08.431Z,97.90
2018-03-27T09:01:11.806Z,97.30
2018-03-27T09:03:15.310Z,97.10
2018-03-27T09:05:19.749Z,97.30
2018-03-27T09:07:24.387Z,97.10
2018-03-27T09:09:28.290Z,97.50
2018-03-27T09:11:34.206Z,97.70
2018-03-27T09:13:40.049Z,97.70
2018-03-27T09:15:46.283Z,97.70
2018-03-27T09:17:51.492Z,97.20
2018-03-27T09:19:57.107Z,96.80
2018-03-27T09:22:01.996Z,97.10
2018-03-27T09:24:05.370Z,97.20
2018-03-27T09:26:08.980Z,96.40
2018-03-27T09:28:12.460Z,97.00
2018-03-27T09:30:16.153Z,94.80
2018-03-27T09:32:19.491Z,94.30
2018-03-27T09:34:22.861Z,94.90
2018-03-27T09:36:26.175Z,94.60
2018-03-27T09:38:30.278Z,93.50
2018-03-27T09:40:34.450Z,93.10
2018-03-27T09:42:37.867Z,93.10
2018-03-27T09:44:41.186Z,93.30
2018-03-27T09:46:45.272Z,92.80
2018-03-27T09:48:48.630Z,92.80
2018-03-27T09:50:51.985Z,92.90
2018-03-27T09:52:56.119Z,93.70
2018-03-27T09:54:59.445Z,93.70
2018-03-27T09:57:02.928Z,93.50
2018-03-27T09:59:06.364Z,93.50
2018-03-27T10:01:10.518Z,93.50
2018-03-27T10:03:13.862Z,93.60
2018-03-27T10:05:17.951Z,93.50
2018-03-27T10:07:21.306Z,93.40
2018-03-27T10:09:24.628Z,93.10
2018-03-27T10:11:28.007Z,93.60
2018-03-27T10:13:31.342Z,93.60
2018-03-27T10:15:35.446Z,92.00
2018-03-27T10:17:39.627Z,91.30
2018-03-27T10:19:43.032Z,91.20
2018-03-27T10:21:46.396Z,91.10
2018-03-27T10:23:49.725Z,90.40
2018-03-27T10:25:53.096Z,89.90
2018-03-27T10:27:56.481Z,86.30
2018-03-27T10:29:59.825Z,87.20
2018-03-27T10:32:03.209Z,84.60
2018-03-27T10:34:07.286Z,81.70
2018-03-27T10:36:11.426Z,79.10
2018-03-27T10:38:15.557Z,75.30
2018-03-27T10:40:18.893Z,75.20
2018-03-27T10:42:22.279Z,76.00
2018-03-27T10:44:25.634Z,74.90
2018-03-27T10:46:28.964Z,73.90
2018-03-27T10:48:32.352Z,75.00
2018-03-27T10:50:35.743Z,67.70
2018-03-27T10:52:39.065Z,65.30
2018-03-27T10:54:42.421Z,62.90
2018-03-27T10:56:45.734Z,58.30
2018-03-27T10:58:49.119Z,59.70
2018-03-27T11:00:52.442Z,59.10
2018-03-27T11:02:56.542Z,52.00
2018-03-27T11:04:59.901Z,51.70
2018-03-27T11:07:03.273Z,50.90
2018-03-27T11:09:06.656Z,47.20
2018-03-27T11:11:10.582Z,43.70
2018-03-27T11:13:13.913Z,44.50
2018-03-27T11:15:17.285Z,45.40
2018-03-27T11:17:20.643Z,44.30
2018-03-27T11:19:24.035Z,40.40
2018-03-27T11:21:27.365Z,39.60
2018-03-27T11:23:30.717Z,37.80
2018-03-27T11:25:34.066Z,33.90
2018-03-27T11:27:38.161Z,31.50
2018-03-27T11:29:41.565Z,31.60
2018-03-27T11:31:45.665Z,30.40
2018-03-27T11:33:49.788Z,29.60
2018-03-27T11:35:53.925Z,31.90
2018-03-27T11:37:57.284Z,32.80
2018-03-27T11:40:01.485Z,25.40
2018-03-27T11:42:05.653Z,27.70
2018-03-27T11:44:09.033Z,27.60
2018-03-27T11:46:12.403Z,24.40
2018-03-27T11:48:16.878Z,22.80
2018-03-27T11:50:20.378Z,22.50
2018-03-27T11:52:23.824Z,23.90
2018-03-27T11:54:27.292Z,22.80
2018-03-27T11:56:31.407Z,25.20
2018-03-27T11:58:35.557Z,25.60
2018-03-27T12:00:38.949Z,25.70
2018-03-27T12:02:43.114Z,22.80
2018-03-27T12:04:46.986Z,22.80
2018-03-27T12:06:50.393Z,23.00
2018-03-27T12:08:54.835Z,23.30
2018-03-27T12:10:58.222Z,23.40
2018-03-27T12:13:02.495Z,24.80
2018-03-27T12:15:06.665Z,24.60
2018-03-27T12:17:10.068Z,25.00
2018-03-27T12:19:13.403Z,25.30
2018-03-27T12:21:17.581Z,25.10
2018-03-27T12:23:20.935Z,25.30
2018-03-27T12:25:24.297Z,25.60
2018-03-27T12:27:28.450Z,27.50
2018-03-27T12:29:31.835Z,28.60
2018-03-27T12:31:35.270Z,31.00
2018-03-27T12:33:38.650Z,30.90
2018-03-27T12:35:41.995Z,29.10
2018-03-27T12:37:46.131Z,31.00
2018-03-27T12:39:49.496Z,31.20
2018-03-27T12:41:52.946Z,29.10
2018-03-27T12:43:56.310Z,29.50
2018-03-27T12:45:59.958Z,28.60
2018-03-27T12:48:03.329Z,28.70
2018-03-27T12:50:06.655Z,28.80
2018-03-27T12:52:10.018Z,27.40
2018-03-27T12:54:13.370Z,28.30
2018-03-27T12:56:16.772Z,28.60
2018-03-27T12:58:20.165Z,26.70
2018-03-27T13:00:23.495Z,26.20
2018-03-27T13:02:26.882Z,25.90
2018-03-27T13:04:31.052Z,24.60
2018-03-27T13:06:34.418Z,24.70
2018-03-27T13:08:37.800Z,25.20
2018-03-27T13:10:41.211Z,25.30
2018-03-27T13:12:45.359Z,25.70
2018-03-27T13:14:48.742Z,25.50
2018-03-27T13:16:52.143Z,23.90
2018-03-27T13:18:55.509Z,24.10
2018-03-27T13:20:58.923Z,24.00
2018-03-27T13:23:02.285Z,23.80
2018-03-27T13:25:06.427Z,24.70
2018-03-27T13:27:09.816Z,24.70
2018-03-27T13:29:13.215Z,23.50
2018-03-27T13:31:16.570Z,22.60
2018-03-27T13:33:20.676Z,22.60
2018-03-27T13:35:24.826Z,22.90
2018-03-27T13:37:28.218Z,22.80
2018-03-27T13:39:31.651Z,23.10
2018-03-27T13:41:35.809Z,22.60
2018-03-27T13:43:39.188Z,22.70
2018-03-27T13:45:42.574Z,22.10
2018-03-27T13:47:46.749Z,22.70
2018-03-27T13:49:50.248Z,23.30
2018-03-27T13:51:53.625Z,23.40
2018-03-27T13:53:56.962Z,24.20
2018-03-27T13:56:01.139Z,25.80
2018-03-27T13:58:04.528Z,25.60
2018-03-27T14:00:09.613Z,27.80
2018-03-27T14:02:12.987Z,30.80
2018-03-27T14:04:16.355Z,30.60
2018-03-27T14:06:19.721Z,31.00
2018-03-27T14:08:23.070Z,31.70
2018-03-27T14:10:26.486Z,32.70
2018-03-27T14:12:29.836Z,31.90
2018-03-27T14:14:33.219Z,31.90
2018-03-27T14:16:36.587Z,30.30
2018-03-27T14:18:39.970Z,30.60
2018-03-27T14:20:43.789Z,31.00
2018-03-27T14:22:47.148Z,31.20
2018-03-27T14:24:50.470Z,28.90
2018-03-27T14:26:53.851Z,30.10
2018-03-27T14:28:57.186Z,32.70
2018-03-27T14:31:00.511Z,30.00
2018-03-27T14:33:03.848Z,30.90
2018-03-27T14:35:07.195Z,30.90
2018-03-27T14:37:10.589Z,32.20
2018-03-27T14:39:13.953Z,31.50
2018-03-27T14:41:17.305Z,31.10
2018-03-27T14:43:21.433Z,31.80
2018-03-27T14:45:24.809Z,30.80
2018-03-27T14:47:28.167Z,32.20
2018-03-27T14:49:31.602Z,33.00
2018-03-27T14:51:34.952Z,33.90
2018-03-27T14:53:38.314Z,32.40
2018-03-27T14:55:42.415Z,31.20
2018-03-27T14:57:46.589Z,30.50
2018-03-27T14:59:49.930Z,30.50
2018-03-27T15:01:53.303Z,30.00
2018-03-27T15:03:57.417Z,30.70
2018-03-27T15:06:01.591Z,31.30
2018-03-27T15:08:04.994Z,31.30
2018-03-27T15:10:08.321Z,29.50
2018-03-27T15:12:12.478Z,28.60
2018-03-27T15:14:16.047Z,28.70
2018-03-27T15:16:19.611Z,28.40
2018-03-27T15:18:23.181Z,28.90
2018-03-27T15:20:26.617Z,28.80
2018-03-27T15:22:29.950Z,28.30
2018-03-27T15:24:33.488Z,27.50
2018-03-27T15:26:36.912Z,27.70
2018-03-27T15:28:40.340Z,28.10
2018-03-27T15:30:43.622Z,27.10
2018-03-27T15:32:46.938Z,26.00
2018-03-27T15:34:51.115Z,26.20
2018-03-27T15:36:54.435Z,25.70
2018-03-27T15:38:57.766Z,26.00
2018-03-27T15:41:01.113Z,25.40
2018-03-27T15:43:04.447Z,25.90
2018-03-27T15:45:07.827Z,26.60
2018-03-27T15:47:11.930Z,25.70
2018-03-27T15:49:15.450Z,26.00
2018-03-27T15:51:20.003Z,25.60
2018-03-27T15:53:23.881Z,26.50
2018-03-27T15:55:28.323Z,26.50
2018-03-27T15:57:31.767Z,25.00
2018-03-27T15:59:35.111Z,26.50
2018-03-27T16:01:39.067Z,26.50
2018-03-27T16:03:43.183Z,27.80
2018-03-27T16:05:46.584Z,27.70
2018-03-27T16:07:49.922Z,29.30
2018-03-27T16:09:53.264Z,31.70
2018-03-27T16:11:56.617Z,33.20
2018-03-27T16:13:59.960Z,35.00
2018-03-27T16:16:03.328Z,38.30
2018-03-27T16:18:07.443Z,40.80
2018-03-27T16:20:10.793Z,40.80
2018-03-27T16:22:14.167Z,42.00
2018-03-27T16:24:17.515Z,45.00
2018-03-27T16:26:21.123Z,48.00
2018-03-27T16:28:24.930Z,51.60
2018-03-27T16:30:28.678Z,56.60
2018-03-27T16:32:32.089Z,60.30
2018-03-27T16:34:36.192Z,67.80
2018-03-27T16:36:39.561Z,67.90
2018-03-27T16:38:42.911Z,73.40
2018-03-27T16:40:46.247Z,71.20
2018-03-27T16:42:50.219Z,75.70
2018-03-27T16:44:53.610Z,76.90
2018-03-27T16:46:58.021Z,79.80
2018-03-27T16:49:01.444Z,79.60
2018-03-27T16:51:04.777Z,82.40
2018-03-27T16:53:08.896Z,83.30
2018-03-27T16:55:13.053Z,86.10
2018-03-27T16:57:16.382Z,86.10
2018-03-27T16:59:20.506Z,85.90
2018-03-27T17:01:24.605Z,86.50
2018-03-27T17:03:27.986Z,86.50
2018-03-27T17:05:31.325Z,88.30
2018-03-27T17:07:34.777Z,86.40
2018-03-27T17:09:56.448Z,86.60
2018-03-27T17:11:59.822Z,86.50
2018-03-27T17:14:03.900Z,87.70
2018-03-27T17:16:07.934Z,87.30
2018-03-27T17:18:11.682Z,89.50
2018-03-27T17:20:15.511Z,90.40
2018-03-27T17:22:20.010Z,91.60
2018-03-27T17:24:23.369Z,92.20
2018-03-27T17:26:26.734Z,92.00
2018-03-27T17:28:30.230Z,92.40
2018-03-27T17:30:33.584Z,93.90
2018-03-27T17:32:37.786Z,94.70
2018-03-27T17:34:41.862Z,94.80
2018-03-27T17:36:45.988Z,94.50
2018-03-27T17:38:50.526Z,94.60
2018-03-27T17:40:53.893Z,95.10
2018-03-27T17:42:57.213Z,94.90
2018-03-27T17:45:00.660Z,95.40
2018-03-27T17:47:04.030Z,96.10
2018-03-27T17:49:07.391Z,96.40
2018-03-27T17:51:10.734Z,96.30
2018-03-27T17:53:14.171Z,96.00
2018-03-27T17:55:17.552Z,96.00
2018-03-27T17:57:20.934Z,96.50
2018-03-27T17:59:24.409Z,96.70
2018-03-27T18:01:27.770Z,96.60
2018-03-27T18:03:31.183Z,97.00
2018-03-27T18:05:34.570Z,96.90
2018-03-27T18:07:37.946Z,97.10
2018-03-27T18:09:43.090Z,96.60
2018-03-27T18:11:46.471Z,96.50
2018-03-27T18:13:49.807Z,97.50
2018-03-27T18:15:53.434Z,97.20
2018-03-27T18:17:56.846Z,97.50
2018-03-27T18:20:00.219Z,98.00
2018-03-27T18:22:03.636Z,97.60
2018-03-27T18:24:07.764Z,98.10
2018-03-27T18:26:11.162Z,98.00
2018-03-27T18:28:14.530Z,98.20
2018-03-27T18:30:18.696Z,98.70
2018-03-27T18:32:22.034Z,98.60
2018-03-27T18:34:26.139Z,98.70
2018-03-27T18:36:30.299Z,98.90
2018-03-27T18:38:33.698Z,99.00
2018-03-27T18:40:37.120Z,98.90
2018-03-27T18:42:41.256Z,98.90
2018-03-27T18:44:45.365Z,99.20
2018-03-27T18:46:50.472Z,99.80
2018-03-27T18:48:53.876Z,99.90
2018-03-27T18:50:58.154Z,99.90
2018-03-27T18:53:01.532Z,99.90
2018-03-27T18:55:04.972Z,99.80
2018-03-27T18:57:09.188Z,99.90
2018-03-27T18:59:14.034Z,99.90
2018-03-27T19:01:17.454Z,99.90
2018-03-27T19:03:20.815Z,99.90
2018-03-27T19:05:24.330Z,99.90
2018-03-27T19:07:27.708Z,99.90
2018-03-27T19:09:31.551Z,99.90
2018-03-27T19:11:35.059Z,99.90
2018-03-27T19:13:39.662Z,99.90
2018-03-27T19:15:43.021Z,99.90
2018-03-27T19:17:46.409Z,99.90
2018-03-27T19:19:49.786Z,99.90
2018-03-27T19:21:54.716Z,99.90
2018-03-27T19:23:59.159Z,99.90
2018-03-27T19:26:03.432Z,99.90
2018-03-27T19:28:07.660Z,99.90
2018-03-27T19:30:12.007Z,99.90
2018-03-27T19:32:16.922Z,99.90
2018-03-27T19:34:20.307Z,99.90
2018-03-27T19:36:24.953Z,99.90
2018-03-27T19:38:29.334Z,99.90
2018-03-27T19:40:32.704Z,99.90
2018-03-27T19:42:36.860Z,99.90
2018-03-27T19:44:40.288Z,99.90
2018-03-27T19:46:44.423Z,99.90
2018-03-27T19:48:47.942Z,99.90
2018-03-27T19:50:52.050Z,99.90
2018-03-27T19:52:55.420Z,99.90
2018-03-27T19:54:59.530Z,99.90
2018-03-27T19:57:02.873Z,99.90
2018-03-27T19:59:06.520Z,99.90
2018-03-27T20:01:11.632Z,99.90
2018-03-27T20:03:15.969Z,99.90
2018-03-27T20:05:19.322Z,99.90
2018-03-27T20:07:22.646Z,99.90
2018-03-27T20:09:26.001Z,99.90
2018-03-27T20:11:29.335Z,99.90
2018-03-27T20:13:32.656Z,99.90
2018-03-27T20:15:41.707Z,99.90
2018-03-27T20:17:39.380Z,99.90
2018-03-27T20:19:43.535Z,99.90
2018-03-27T20:21:47.642Z,99.90
2018-03-27T20:23:51.746Z,99.90
2018-03-27T20:25:56.201Z,99.90
2018-03-27T20:27:59.529Z,99.90
2018-03-27T20:30:02.906Z,99.90
2018-03-27T20:32:06.271Z,99.90
2018-03-27T20:34:09.618Z,99.90
2018-03-27T20:36:13.770Z,99.90
2018-03-27T20:38:17.163Z,99.90
2018-03-27T20:40:20.539Z,99.90
2018-03-27T20:42:23.881Z,99.90
2018-03-27T20:44:27.248Z,99.90
2018-03-27T20:46:30.653Z,99.90
2018-03-27T20:48:34.001Z,99.90
2018-03-27T20:50:37.339Z,99.90
2018-03-27T20:52:40.680Z,99.90
2018-03-27T20:54:44.776Z,99.90
2018-03-27T20:56:48.914Z,99.90
2018-03-27T20:58:52.252Z,99.90
2018-03-27T21:00:55.619Z,99.90
2018-03-27T21:02:58.978Z,99.90
2018-03-27T21:05:03.094Z,99.90
2018-03-27T21:07:06.448Z,99.90
2018-03-27T21:09:09.778Z,99.90
2018-03-27T21:11:13.098Z,99.90
2018-03-27T21:13:17.287Z,99.90
2018-03-27T21:15:20.622Z,99.90
2018-03-27T21:17:23.995Z,99.90
2018-03-27T21:19:27.340Z,99.90
2018-03-27T21:21:30.680Z,99.90
2018-03-27T21:23:34.027Z,99.90
2018-03-27T21:25:37.375Z,99.90
2018-03-27T21:27:40.799Z,99.90
2018-03-27T21:29:44.159Z,99.90
2018-03-27T21:31:47.511Z,99.90
2018-03-27T21:33:51.724Z,99.90
2018-03-27T21:35:55.058Z,99.90
2018-03-27T21:37:58.418Z,99.90
2018-03-27T21:40:01.755Z,99.90
2018-03-27T21:42:05.095Z,99.90
2018-03-27T21:44:08.443Z,99.90
2018-03-27T21:46:11.781Z,99.90
2018-03-27T21:48:15.135Z,99.90
2018-03-27T21:50:19.234Z,99.90
2018-03-27T21:52:22.570Z,99.90
2018-03-27T21:54:25.919Z,99.90
2018-03-27T21:56:29.258Z,99.90
2018-03-27T21:58:32.602Z,99.90
2018-03-27T22:00:36.706Z,99.90
2018-03-27T22:02:40.055Z,99.90
2018-03-27T22:04:43.402Z,99.90
2018-03-27T22:06:47.520Z,99.90
2018-03-27T22:08:52.035Z,99.90
2018-03-27T22:10:56.143Z,99.90
2018-03-27T22:13:00.250Z,99.90
2018-03-27T22:15:04.417Z,99.90
2018-03-27T22:17:11.834Z,99.90
2018-03-27T22:19:16.516Z,99.90
2018-03-27T22:21:19.838Z,99.90
2018-03-27T22:23:23.966Z,99.90
2018-03-27T22:25:28.085Z,99.90
2018-03-27T22:27:31.428Z,99.90
2018-03-27T22:29:34.819Z,99.90
2018-03-27T22:31:38.159Z,99.90
2018-03-27T22:33:41.536Z,99.90
2018-03-27T22:35:45.661Z,99.90
2018-03-27T22:37:49.752Z,99.90
2018-03-27T22:39:53.935Z,99.90
2018-03-27T22:41:57.265Z,99.90
2018-03-27T22:44:01.367Z,99.90
2018-03-27T22:46:05.484Z,99.90
2018-03-27T22:48:08.891Z,99.90
2018-03-27T22:50:12.261Z,99.90
2018-03-27T22:52:16.370Z,99.90
2018-03-27T22:54:20.480Z,99.90
2018-03-27T22:56:23.877Z,99.90
2018-03-27T22:58:27.987Z,99.90
2018-03-27T23:00:32.115Z,99.90
2018-03-27T23:02:35.455Z,99.90
2018-03-27T23:04:39.583Z,99.90
2018-03-27T23:06:42.944Z,99.90
2018-03-27T23:08:46.282Z,99.90
2018-03-27T23:10:50.391Z,99.90
2018-03-27T23:12:54.486Z,99.90
2018-03-27T23:14:57.800Z,99.90
2018-03-27T23:17:01.158Z,99.90
2018-03-27T23:19:04.514Z,99.90
2018-03-27T23:21:07.838Z,99.90
2018-03-27T23:23:11.191Z,99.90
2018-03-27T23:25:14.532Z,99.90
2018-03-27T23:27:17.908Z,99.90
2018-03-27T23:29:21.286Z,99.90
2018-03-27T23:31:25.357Z,99.90
2018-03-27T23:33:29.584Z,99.90
2018-03-27T23:35:32.907Z,99.90
2018-03-27T23:37:36.274Z,99.90
2018-03-27T23:39:39.617Z,99.90
2018-03-27T23:41:43.701Z,99.90
2018-03-27T23:43:47.049Z,99.90
2018-03-27T23:45:50.388Z,99.90
2018-03-27T23:47:53.769Z,99.90
2018-03-27T23:49:57.094Z,99.90
2018-03-27T23:52:01.181Z,99.90
2018-03-27T23:54:04.529Z,99.90
2018-03-27T23:56:07.854Z,99.90
2018-03-27T23:58:11.246Z,99.90
